LRTR/TSR METAR and TAF weather

Enter ICAO airport designator
Station Type Date Time Source
LRTR METAR 2019/04/18 15:00 UTC NOAA

LRTR 181500Z 36009KT 9999 FEW050CB 19/04 Q1025 NOSIG


Station Type Date Time Source
LRTR Decoded METAR 2019/04/18 15:00 UTC NOAA

Timisoara, Romania (LRTR) 45-46N 021-15E 88M
Apr 18, 2019 - 11:00 AM EDT / 2019.04.18 1500 UTC
Wind: from the N (360 degrees) at 10 MPH (9 KT):0
Visibility: greater than 7 mile(s):0
Sky conditions: mostly clear
Weather: Cumulonimbus clouds observed
Temperature: 66 F (19 C)
Dew Point: 39 F (4 C)
Relative Humidity: 37%
Pressure (altimeter): 30.27 in. Hg (1025 hPa)
ob: LRTR 181500Z 36009KT 9999 FEW050CB 19/04 Q1025 NOSIG
cycle: 15

Station Type Date Time Source
LRTR TAF 2019/04/18 12:33 UTC NOAA

TAF LRTR 181100Z 1812/1912 08008KT CAVOK
BECMG 1907/1909 02010KT
TEMPO 1909/1912 02015G25KT

Example: see airport list